createdAt,value
2023-02-12T00:00:23.886Z,8.50
2023-02-12T00:02:26.595Z,8.50
2023-02-12T00:04:29.187Z,8.50
2023-02-12T00:06:32.533Z,8.40
2023-02-12T00:08:35.905Z,8.40
2023-02-12T00:10:42.404Z,8.40
2023-02-12T00:12:44.953Z,8.40
2023-02-12T00:14:47.727Z,8.50
2023-02-12T00:16:50.360Z,8.40
2023-02-12T00:18:53.603Z,8.40
2023-02-12T00:20:58.029Z,8.40
2023-02-12T00:23:00.569Z,8.40
2023-02-12T00:25:03.124Z,8.40
2023-02-12T00:27:17.550Z,8.40
2023-02-12T00:29:20.247Z,8.00
2023-02-12T00:31:23.622Z,8.40
2023-02-12T00:33:26.377Z,8.40
2023-02-12T00:35:29.116Z,8.40
2023-02-12T00:37:31.667Z,8.30
2023-02-12T00:39:36.087Z,8.30
2023-02-12T00:41:38.627Z,8.30
2023-02-12T00:43:41.471Z,8.30
2023-02-12T00:45:45.027Z,8.20
2023-02-12T00:47:47.703Z,8.30
2023-02-12T00:49:51.198Z,8.20
2023-02-12T00:51:53.770Z,8.20
2023-02-12T00:53:56.430Z,8.20
2023-02-12T00:55:58.998Z,8.20
2023-02-12T00:58:01.586Z,8.30
2023-02-12T01:00:05.459Z,8.20
2023-02-12T01:02:07.967Z,8.30
2023-02-12T01:04:10.633Z,8.10
2023-02-12T01:06:13.284Z,8.00
2023-02-12T01:08:16.358Z,7.90
2023-02-12T01:10:20.454Z,7.90
2023-02-12T01:12:22.961Z,7.80
2023-02-12T01:14:25.455Z,7.80
2023-02-12T01:16:28.443Z,7.80
2023-02-12T01:18:32.147Z,7.80
2023-02-12T01:20:35.133Z,7.90
2023-02-12T01:22:38.044Z,8.00
2023-02-12T01:24:40.720Z,8.00
2023-02-12T01:26:43.272Z,8.00
2023-02-12T01:28:47.685Z,8.00
2023-02-12T01:30:50.241Z,8.00
2023-02-12T01:32:52.799Z,8.00
2023-02-12T01:34:55.501Z,7.90
2023-02-12T01:36:57.994Z,8.00
2023-02-12T01:39:02.178Z,8.00
2023-02-12T01:41:04.933Z,8.00
2023-02-12T01:43:09.352Z,8.00
2023-02-12T01:45:40.604Z,7.90
2023-02-12T01:47:44.681Z,7.90
2023-02-12T01:49:48.242Z,8.00
2023-02-12T01:51:52.533Z,8.00
2023-02-12T01:53:56.941Z,8.10
2023-02-12T01:56:00.240Z,8.10
2023-02-12T01:58:04.367Z,8.00
2023-02-12T02:00:09.377Z,8.00
2023-02-12T02:02:13.896Z,8.00
2023-02-12T02:04:18.751Z,8.10
2023-02-12T02:06:23.173Z,8.00
2023-02-12T02:08:25.768Z,8.10
2023-02-12T02:10:29.921Z,8.00
2023-02-12T02:12:50.360Z,8.10
2023-02-12T02:14:54.790Z,8.00
2023-02-12T02:16:59.936Z,8.10
2023-02-12T02:19:04.234Z,8.00
2023-02-12T02:21:21.360Z,8.00
2023-02-12T02:23:58.380Z,8.00
2023-02-12T02:28:30.099Z,7.90
2023-02-12T02:30:34.404Z,8.00
2023-02-12T02:32:39.102Z,7.90
2023-02-12T02:34:43.470Z,7.80
2023-02-12T02:36:59.561Z,7.80
2023-02-12T02:38:55.449Z,7.90
2023-02-12T02:41:00.122Z,7.90
2023-02-12T02:43:04.910Z,7.90
2023-02-12T02:45:09.539Z,7.90
2023-02-12T02:47:13.909Z,8.00
2023-02-12T02:49:18.078Z,8.00
2023-02-12T02:51:22.170Z,8.00
2023-02-12T02:53:27.242Z,8.00
2023-02-12T02:55:31.535Z,8.00
2023-02-12T02:57:36.467Z,8.00
2023-02-12T02:59:40.823Z,8.00
2023-02-12T03:01:44.145Z,8.00
2023-02-12T03:03:48.626Z,8.00
2023-02-12T03:05:53.256Z,8.00
2023-02-12T03:07:58.165Z,8.00
2023-02-12T03:10:02.355Z,7.90
2023-02-12T03:12:06.976Z,8.00
2023-02-12T03:14:11.817Z,8.00
2023-02-12T03:16:17.087Z,7.90
2023-02-12T03:18:20.914Z,8.00
2023-02-12T03:20:24.621Z,7.90
2023-02-12T03:22:29.207Z,7.80
2023-02-12T03:24:35.454Z,7.80
2023-02-12T03:26:40.760Z,7.70
2023-02-12T03:28:43.301Z,7.70
2023-02-12T03:30:47.945Z,7.80
2023-02-12T03:32:52.902Z,7.80
2023-02-12T03:34:57.444Z,7.80
2023-02-12T03:37:01.724Z,7.90
2023-02-12T03:39:06.596Z,7.90
2023-02-12T03:41:11.604Z,7.90
2023-02-12T03:43:15.903Z,7.90
2023-02-12T03:45:21.372Z,7.90
2023-02-12T03:47:26.308Z,7.90
2023-02-12T03:49:30.931Z,7.80
2023-02-12T03:51:35.208Z,7.90
2023-02-12T03:53:37.673Z,7.80
2023-02-12T03:55:42.072Z,7.90
2023-02-12T03:57:45.544Z,7.80
2023-02-12T03:59:48.297Z,7.90
2023-02-12T04:01:52.848Z,7.90
2023-02-12T04:03:56.015Z,7.90
2023-02-12T04:05:58.477Z,7.90
2023-02-12T04:08:02.583Z,7.80
2023-02-12T04:10:06.499Z,7.80
2023-02-12T04:12:28.111Z,7.90
2023-02-12T04:14:33.592Z,7.80
2023-02-12T04:16:38.127Z,7.90
2023-02-12T04:18:42.962Z,7.80
2023-02-12T04:20:50.436Z,7.80
2023-02-12T04:22:55.274Z,7.80
2023-02-12T04:25:00.841Z,7.90
2023-02-12T04:27:05.280Z,7.90
2023-02-12T04:29:10.974Z,7.90
2023-02-12T04:31:15.501Z,7.90
2023-02-12T04:33:19.491Z,7.90
2023-02-12T04:35:24.139Z,7.90
2023-02-12T04:37:28.577Z,7.80
2023-02-12T04:39:32.784Z,7.80
2023-02-12T04:41:35.777Z,7.80
2023-02-12T04:43:38.375Z,7.80
2023-02-12T04:45:41.024Z,7.80
2023-02-12T04:47:43.605Z,7.90
2023-02-12T04:49:46.118Z,7.90
2023-02-12T04:51:49.069Z,7.80
2023-02-12T04:53:51.580Z,7.80
2023-02-12T04:55:55.017Z,7.90
2023-02-12T04:57:57.771Z,7.80
2023-02-12T05:00:00.455Z,7.90
2023-02-12T05:02:03.033Z,7.80
2023-02-12T05:04:06.547Z,7.80
2023-02-12T05:06:09.460Z,7.80
2023-02-12T05:08:12.252Z,7.80
2023-02-12T05:10:14.769Z,7.80
2023-02-12T05:12:17.254Z,7.80
2023-02-12T05:14:19.853Z,7.80
2023-02-12T05:16:22.619Z,7.80
2023-02-12T05:18:25.103Z,7.80
2023-02-12T05:20:27.763Z,7.80
2023-02-12T05:22:30.239Z,7.80
2023-02-12T05:24:32.738Z,7.90
2023-02-12T05:26:35.699Z,7.90
2023-02-12T05:28:38.346Z,7.80
2023-02-12T05:30:40.884Z,7.80
2023-02-12T05:32:43.451Z,7.70
2023-02-12T05:34:45.936Z,7.70
2023-02-12T05:36:48.816Z,7.70
2023-02-12T05:38:52.588Z,7.70
2023-02-12T05:40:55.052Z,7.70
2023-02-12T05:42:57.540Z,7.80
2023-02-12T05:45:00.197Z,7.80
2023-02-12T05:47:02.686Z,7.90
2023-02-12T05:49:05.170Z,7.90
2023-02-12T05:51:08.822Z,7.80
2023-02-12T05:53:11.301Z,7.90
2023-02-12T05:55:13.809Z,7.80
2023-02-12T05:57:16.317Z,7.80
2023-02-12T05:59:19.840Z,7.70
2023-02-12T06:01:23.333Z,7.70
2023-02-12T06:03:25.857Z,7.70
2023-02-12T06:05:28.384Z,7.80
2023-02-12T06:07:30.888Z,7.80
2023-02-12T06:09:34.488Z,7.80
2023-02-12T06:11:36.988Z,7.70
2023-02-12T06:13:39.487Z,7.80
2023-02-12T06:15:42.018Z,7.80
2023-02-12T06:17:44.613Z,7.80
2023-02-12T06:19:47.176Z,7.70
2023-02-12T06:21:49.777Z,7.70
2023-02-12T06:23:52.860Z,7.70
2023-02-12T06:25:56.897Z,7.80
2023-02-12T06:27:59.644Z,7.80
2023-02-12T06:30:02.262Z,7.80
2023-02-12T06:32:06.694Z,7.70
2023-02-12T06:34:10.091Z,7.70
2023-02-12T06:36:12.577Z,7.70
2023-02-12T06:38:15.179Z,7.80
2023-02-12T06:40:18.218Z,7.70
2023-02-12T06:42:20.685Z,7.80
2023-02-12T06:44:23.204Z,7.80
2023-02-12T06:46:26.267Z,7.80
2023-02-12T06:48:29.000Z,7.70
2023-02-12T06:50:31.593Z,7.70
2023-02-12T06:52:34.108Z,7.70
2023-02-12T06:54:36.600Z,7.70
2023-02-12T06:56:39.372Z,7.80
2023-02-12T06:58:42.660Z,7.70
2023-02-12T07:00:45.583Z,7.90
2023-02-12T07:02:52.476Z,7.80
2023-02-12T07:04:54.970Z,7.80
2023-02-12T07:06:57.575Z,7.80
2023-02-12T07:09:00.101Z,7.70
2023-02-12T07:11:02.626Z,7.70
2023-02-12T07:13:05.478Z,7.70
2023-02-12T07:15:08.942Z,7.70
2023-02-12T07:17:11.404Z,7.80
2023-02-12T07:19:13.933Z,7.70
2023-02-12T07:21:16.812Z,7.80
2023-02-12T07:23:19.316Z,7.80
2023-02-12T07:25:21.801Z,7.80
2023-02-12T07:27:24.306Z,7.80
2023-02-12T07:29:26.776Z,7.80
2023-02-12T07:31:29.472Z,7.90
2023-02-12T07:33:32.057Z,7.80
2023-02-12T07:35:34.568Z,7.90
2023-02-12T07:37:37.072Z,7.90
2023-02-12T07:39:39.576Z,7.90
2023-02-12T07:41:42.192Z,7.90
2023-02-12T07:43:45.406Z,8.00
2023-02-12T07:45:47.968Z,7.90
2023-02-12T07:47:50.542Z,7.90
2023-02-12T07:49:53.038Z,7.90
2023-02-12T07:51:56.882Z,8.00
2023-02-12T07:54:01.216Z,8.10
2023-02-12T07:56:09.820Z,8.10
2023-02-12T07:58:13.948Z,8.10
2023-02-12T08:00:20.533Z,8.00
2023-02-12T08:02:25.228Z,8.00
2023-02-12T08:04:29.019Z,8.00
2023-02-12T08:06:33.917Z,8.10
2023-02-12T08:08:38.557Z,8.10
2023-02-12T08:10:41.135Z,8.10
2023-02-12T08:12:44.517Z,8.10
2023-02-12T08:14:47.973Z,8.10
2023-02-12T08:16:52.259Z,8.20
2023-02-12T08:19:02.336Z,8.30
2023-02-12T08:21:04.676Z,8.30
2023-02-12T08:23:08.178Z,8.30
2023-02-12T08:25:10.774Z,8.30
2023-02-12T08:27:14.465Z,8.40
2023-02-12T08:29:19.574Z,8.50
2023-02-12T08:31:24.199Z,8.40
2023-02-12T08:33:26.800Z,8.50
2023-02-12T08:35:30.202Z,8.30
2023-02-12T08:37:34.047Z,8.50
2023-02-12T08:39:37.918Z,8.50
2023-02-12T08:41:41.767Z,8.50
2023-02-12T08:43:45.690Z,8.60
2023-02-12T08:45:49.413Z,8.60
2023-02-12T08:47:52.060Z,8.60
2023-02-12T08:49:55.436Z,8.70
2023-02-12T08:51:59.823Z,8.60
2023-02-12T08:54:04.285Z,8.70
2023-02-12T08:56:07.635Z,8.80
2023-02-12T08:58:10.136Z,8.70
2023-02-12T09:00:15.315Z,8.80
2023-02-12T09:02:18.824Z,8.80
2023-02-12T09:04:23.260Z,8.90
2023-02-12T09:06:27.570Z,8.90
2023-02-12T09:08:31.106Z,8.90
2023-02-12T09:10:34.894Z,8.90
2023-02-12T09:12:38.635Z,9.00
2023-02-12T09:14:42.608Z,9.00
2023-02-12T09:16:45.496Z,9.00
2023-02-12T09:18:48.148Z,9.00
2023-02-12T09:20:50.642Z,9.00
2023-02-12T09:22:54.032Z,9.00
2023-02-12T09:24:56.565Z,9.00
2023-02-12T09:26:59.153Z,9.00
2023-02-12T09:29:02.598Z,9.00
2023-02-12T09:31:06.011Z,9.10
2023-02-12T09:33:10.268Z,9.10
2023-02-12T09:35:12.803Z,9.10
2023-02-12T09:37:15.432Z,9.20
2023-02-12T09:39:17.952Z,9.20
2023-02-12T09:41:42.485Z,9.10
2023-02-12T09:43:46.803Z,9.20
2023-02-12T09:45:52.773Z,9.30
2023-02-12T09:47:59.860Z,9.40
2023-02-12T09:50:33.766Z,9.40
2023-02-12T09:54:56.021Z,9.40
2023-02-12T09:57:00.181Z,9.40
2023-02-12T09:59:04.479Z,9.50
2023-02-12T10:01:11.880Z,9.50
2023-02-12T10:03:15.921Z,9.50
2023-02-12T10:05:19.917Z,9.60
2023-02-12T10:07:25.992Z,9.60
2023-02-12T10:09:33.453Z,9.60
2023-02-12T10:11:56.332Z,9.60
2023-02-12T10:14:02.310Z,9.70
2023-02-12T10:16:08.505Z,9.70
2023-02-12T10:18:16.743Z,9.70
2023-02-12T10:20:40.388Z,9.70
2023-02-12T10:22:56.067Z,9.80
2023-02-12T10:24:57.028Z,9.80
2023-02-12T10:27:01.226Z,9.90
2023-02-12T10:29:09.731Z,10.00
2023-02-12T10:31:14.667Z,10.00
2023-02-12T10:33:19.007Z,10.00
2023-02-12T10:35:23.159Z,10.10
2023-02-12T10:37:29.257Z,10.10
2023-02-12T10:39:33.951Z,10.00
2023-02-12T10:41:38.271Z,9.90
2023-02-12T10:43:40.799Z,10.00
2023-02-12T10:45:43.992Z,10.20
2023-02-12T10:47:48.336Z,10.20
2023-02-12T10:49:52.709Z,10.20
2023-02-12T10:51:58.955Z,10.30
2023-02-12T10:54:21.396Z,10.30
2023-02-12T10:56:24.632Z,10.40
2023-02-12T10:58:27.201Z,10.40
2023-02-12T11:00:30.879Z,10.20
2023-02-12T11:02:33.915Z,10.30
2023-02-12T11:04:36.492Z,10.30
2023-02-12T11:06:39.360Z,10.40
2023-02-12T11:08:42.253Z,10.50
2023-02-12T11:10:44.920Z,10.50
2023-02-12T11:12:48.850Z,10.50
2023-02-12T11:14:52.092Z,10.60
2023-02-12T11:16:55.754Z,10.60
2023-02-12T11:18:59.395Z,10.70
2023-02-12T11:21:02.816Z,10.60
2023-02-12T11:23:06.525Z,10.60
2023-02-12T11:25:12.473Z,10.50
2023-02-12T11:27:22.347Z,10.50
2023-02-12T11:29:24.916Z,10.40
2023-02-12T11:31:28.322Z,10.40
2023-02-12T11:33:33.788Z,10.40
2023-02-12T11:35:39.459Z,10.50
2023-02-12T11:37:42.994Z,10.50
2023-02-12T11:39:48.040Z,10.50
2023-02-12T11:41:53.253Z,10.50
2023-02-12T11:43:56.423Z,10.60
2023-02-12T11:46:00.519Z,10.70
2023-02-12T11:48:03.285Z,10.70
2023-02-12T11:50:07.841Z,10.70
2023-02-12T11:52:16.335Z,10.70
2023-02-12T11:54:21.083Z,10.70
2023-02-12T11:56:23.710Z,10.80
2023-02-12T11:58:28.156Z,10.80
2023-02-12T12:00:33.914Z,10.70
2023-02-12T12:02:38.587Z,10.80
2023-02-12T12:04:41.782Z,10.80
2023-02-12T12:06:46.275Z,10.70
2023-02-12T12:08:50.633Z,10.80
2023-02-12T12:10:56.607Z,10.90
2023-02-12T12:13:00.935Z,11.00
2023-02-12T12:15:23.599Z,10.90
2023-02-12T12:17:46.053Z,10.90
2023-02-12T12:19:54.250Z,10.90
2023-02-12T12:21:59.561Z,10.90
2023-02-12T12:24:04.050Z,10.90
2023-02-12T12:26:09.047Z,11.00
2023-02-12T12:28:14.528Z,11.00
2023-02-12T12:30:20.886Z,10.90
2023-02-12T12:32:35.577Z,11.00
2023-02-12T12:34:38.426Z,11.00
2023-02-12T12:36:59.777Z,11.10
2023-02-12T12:39:04.617Z,11.00
2023-02-12T12:41:09.772Z,11.00
2023-02-12T12:43:14.043Z,11.00
2023-02-12T12:45:20.357Z,11.10
2023-02-12T12:47:25.097Z,11.10
2023-02-12T12:49:31.984Z,11.10
2023-02-12T12:51:39.465Z,11.10
2023-02-12T12:53:45.359Z,11.10
2023-02-12T12:56:22.552Z,10.80
2023-02-12T13:00:52.015Z,10.90
2023-02-12T13:03:20.008Z,10.90
2023-02-12T13:05:41.023Z,11.00
2023-02-12T13:07:47.718Z,11.00
2023-02-12T13:10:04.254Z,10.70
2023-02-12T13:12:15.102Z,10.50
2023-02-12T13:14:27.059Z,10.50
2023-02-12T13:16:31.246Z,10.40
2023-02-12T13:18:40.344Z,10.50
2023-02-12T13:20:44.936Z,10.40
2023-02-12T13:22:49.919Z,10.50
2023-02-12T13:24:54.340Z,10.60
2023-02-12T13:26:58.306Z,10.60
2023-02-12T13:29:03.479Z,10.70
2023-02-12T13:31:24.869Z,10.70
2023-02-12T13:33:14.306Z,10.80
2023-02-12T13:35:18.722Z,10.50
2023-02-12T13:37:23.264Z,10.50
2023-02-12T13:39:28.768Z,10.60
2023-02-12T13:41:38.317Z,10.60
2023-02-12T13:43:51.020Z,10.70
2023-02-12T13:45:58.394Z,10.70
2023-02-12T13:48:09.666Z,10.70
2023-02-12T13:50:17.760Z,10.60
2023-02-12T13:52:26.586Z,10.30
2023-02-12T13:54:37.405Z,10.20
2023-02-12T13:56:42.890Z,10.10
2023-02-12T13:58:50.366Z,10.10
2023-02-12T14:00:58.998Z,10.00
2023-02-12T14:03:03.342Z,10.00
2023-02-12T14:05:11.019Z,10.10
2023-02-12T14:07:14.364Z,10.20
2023-02-12T14:09:21.052Z,10.20
2023-02-12T14:11:25.287Z,10.30
2023-02-12T14:13:29.683Z,10.30
2023-02-12T14:15:35.751Z,10.30
2023-02-12T14:17:43.500Z,10.30
2023-02-12T14:20:08.297Z,10.30
2023-02-12T14:22:14.528Z,10.30
2023-02-12T14:24:35.085Z,10.40
2023-02-12T14:26:38.518Z,10.40
2023-02-12T14:28:44.480Z,10.50
2023-02-12T14:30:48.979Z,10.40
2023-02-12T14:33:11.463Z,10.40
2023-02-12T14:35:32.997Z,10.30
2023-02-12T14:37:38.142Z,10.30
2023-02-12T14:39:41.648Z,10.30
2023-02-12T14:41:45.503Z,10.20
2023-02-12T14:44:02.170Z,10.10
2023-02-12T14:46:23.707Z,10.10
2023-02-12T14:48:41.549Z,10.10
2023-02-12T14:50:48.149Z,10.20
2023-02-12T14:52:57.401Z,10.20
2023-02-12T14:55:02.116Z,10.00
2023-02-12T14:57:10.328Z,10.10
2023-02-12T14:59:17.337Z,10.00
2023-02-12T15:01:27.446Z,10.20
2023-02-12T15:03:33.367Z,10.00
2023-02-12T15:05:44.859Z,9.90
2023-02-12T15:07:51.067Z,9.90
2023-02-12T15:09:57.490Z,9.80
2023-02-12T15:12:03.209Z,9.80
2023-02-12T15:14:09.196Z,9.80
2023-02-12T15:16:17.318Z,9.80
2023-02-12T15:18:24.030Z,9.90
2023-02-12T15:20:31.466Z,9.90
2023-02-12T15:22:35.696Z,10.00
2023-02-12T15:24:39.406Z,10.00
2023-02-12T15:26:45.144Z,10.00
2023-02-12T15:28:50.328Z,10.10
2023-02-12T15:30:55.239Z,10.00
2023-02-12T15:33:01.023Z,9.90
2023-02-12T15:35:05.138Z,9.80
2023-02-12T15:37:09.609Z,9.70
2023-02-12T15:39:18.745Z,9.70
2023-02-12T15:41:27.639Z,9.60
2023-02-12T15:43:34.124Z,9.60
2023-02-12T15:45:39.373Z,9.60
2023-02-12T15:47:43.946Z,9.60
2023-02-12T15:49:48.383Z,9.60
2023-02-12T15:51:52.094Z,9.50
2023-02-12T15:53:57.229Z,9.50
2023-02-12T15:56:03.601Z,9.50
2023-02-12T15:58:11.315Z,9.40
2023-02-12T16:00:21.218Z,9.50
2023-02-12T16:02:29.454Z,9.40
2023-02-12T16:04:36.508Z,9.40
2023-02-12T16:06:42.183Z,9.40
2023-02-12T16:08:47.519Z,9.40
2023-02-12T16:10:53.892Z,9.40
2023-02-12T16:13:08.547Z,9.40
2023-02-12T16:15:25.485Z,9.40
2023-02-12T16:17:30.320Z,9.40
2023-02-12T16:19:37.040Z,9.30
2023-02-12T16:21:41.203Z,9.30
2023-02-12T16:23:44.609Z,9.30
2023-02-12T16:25:50.502Z,9.30
2023-02-12T16:28:01.882Z,9.30
2023-02-12T16:30:07.712Z,9.30
2023-02-12T16:32:14.970Z,9.30
2023-02-12T16:34:28.994Z,9.30
2023-02-12T16:36:34.709Z,9.30
2023-02-12T16:38:44.928Z,9.30
2023-02-12T16:40:49.664Z,9.20
2023-02-12T16:43:01.744Z,9.20
2023-02-12T16:45:24.400Z,9.20
2023-02-12T16:47:27.632Z,9.20
2023-02-12T16:49:31.133Z,9.30
2023-02-12T16:51:35.803Z,9.20
2023-02-12T16:53:43.636Z,9.20
2023-02-12T16:55:48.079Z,9.20
2023-02-12T16:57:51.225Z,9.20
2023-02-12T16:59:54.645Z,9.20
2023-02-12T17:01:59.587Z,9.20
2023-02-12T17:04:04.808Z,9.20
2023-02-12T17:06:10.411Z,9.20
2023-02-12T17:08:14.926Z,9.10
2023-02-12T17:10:19.092Z,9.10
2023-02-12T17:12:22.750Z,9.10
2023-02-12T17:14:26.541Z,9.10
2023-02-12T17:16:32.121Z,9.10
2023-02-12T17:18:36.149Z,9.10
2023-02-12T17:20:39.580Z,9.10
2023-02-12T17:22:45.439Z,9.10
2023-02-12T17:24:51.188Z,9.10
2023-02-12T17:26:54.820Z,9.10
2023-02-12T17:28:59.879Z,9.10
2023-02-12T17:31:05.253Z,9.10
2023-02-12T17:33:09.815Z,9.00
2023-02-12T17:35:14.334Z,9.00
2023-02-12T17:37:18.123Z,9.00
2023-02-12T17:39:21.790Z,9.00
2023-02-12T17:41:25.064Z,9.00
2023-02-12T17:43:27.850Z,9.00
2023-02-12T17:45:31.014Z,9.00
2023-02-12T17:47:36.235Z,8.90
2023-02-12T17:49:40.246Z,8.90
2023-02-12T17:51:43.945Z,8.90
2023-02-12T17:53:47.441Z,8.90
2023-02-12T17:55:50.753Z,8.90
2023-02-12T17:57:54.810Z,8.90
2023-02-12T17:59:58.443Z,8.80
2023-02-12T18:02:02.523Z,8.80
2023-02-12T18:04:05.621Z,8.80
2023-02-12T18:06:12.008Z,8.80
2023-02-12T18:08:15.876Z,8.80
2023-02-12T18:10:19.351Z,8.80
2023-02-12T18:12:23.697Z,8.80
2023-02-12T18:14:26.901Z,8.80
2023-02-12T18:16:31.653Z,8.70
2023-02-12T18:18:35.856Z,8.70
2023-02-12T18:20:40.566Z,8.70
2023-02-12T18:22:45.033Z,8.70
2023-02-12T18:24:48.940Z,8.70
2023-02-12T18:26:51.813Z,8.70
2023-02-12T18:28:57.827Z,8.70
2023-02-12T18:31:00.905Z,8.70
2023-02-12T18:33:04.043Z,8.60
2023-02-12T18:35:07.835Z,8.60
2023-02-12T18:37:11.095Z,8.60
2023-02-12T18:39:13.634Z,8.60
2023-02-12T18:41:17.254Z,8.60
2023-02-12T18:43:24.816Z,8.60
2023-02-12T18:45:27.556Z,8.60
2023-02-12T18:47:30.178Z,8.60
2023-02-12T18:49:32.794Z,8.70
2023-02-12T18:51:38.244Z,8.60
2023-02-12T18:53:40.952Z,8.60
2023-02-12T18:55:43.522Z,8.70
2023-02-12T18:57:46.124Z,8.70
2023-02-12T18:59:48.829Z,8.60
2023-02-12T19:01:51.889Z,8.60
2023-02-12T19:03:59.156Z,8.60
2023-02-12T19:06:03.765Z,8.60
2023-02-12T19:08:06.289Z,8.60
2023-02-12T19:10:09.477Z,8.60
2023-02-12T19:12:12.221Z,8.60
2023-02-12T19:14:15.216Z,8.60
2023-02-12T19:16:18.844Z,8.60
2023-02-12T19:18:21.521Z,8.60
2023-02-12T19:20:24.147Z,8.60
2023-02-12T19:22:26.639Z,8.60
2023-02-12T19:24:41.056Z,8.60
2023-02-12T19:26:34.583Z,8.60
2023-02-12T19:28:38.181Z,8.60
2023-02-12T19:30:40.848Z,8.60
2023-02-12T19:32:43.411Z,8.60
2023-02-12T19:34:46.070Z,8.60
2023-02-12T19:36:49.034Z,8.60
2023-02-12T19:38:51.567Z,8.60
2023-02-12T19:41:01.841Z,8.50
2023-02-12T19:43:04.373Z,8.50
2023-02-12T19:45:07.522Z,8.50
2023-02-12T19:47:10.040Z,8.50
2023-02-12T19:49:14.013Z,8.50
2023-02-12T19:51:17.354Z,8.50
2023-02-12T19:53:19.851Z,8.50
2023-02-12T19:55:22.376Z,8.50
2023-02-12T19:57:24.921Z,8.50
2023-02-12T19:59:27.445Z,8.50
2023-02-12T20:01:29.964Z,8.50
2023-02-12T20:03:32.534Z,8.50
2023-02-12T20:05:36.528Z,8.40
2023-02-12T20:07:39.055Z,8.40
2023-02-12T20:09:41.513Z,8.40
2023-02-12T20:11:44.114Z,8.40
2023-02-12T20:13:46.750Z,8.40
2023-02-12T20:15:49.363Z,8.40
2023-02-12T20:17:51.865Z,8.40
2023-02-12T20:19:54.473Z,8.30
2023-02-12T20:21:58.242Z,8.40
2023-02-12T20:24:01.100Z,8.30
2023-02-12T20:26:05.024Z,8.30
2023-02-12T20:28:07.888Z,8.40
2023-02-12T20:30:11.212Z,8.30
2023-02-12T20:32:13.978Z,8.30
2023-02-12T20:34:17.909Z,8.40
2023-02-12T20:36:20.720Z,8.30
2023-02-12T20:38:23.246Z,8.40
2023-02-12T20:40:25.756Z,8.30
2023-02-12T20:42:28.290Z,8.40
2023-02-12T20:44:32.617Z,8.30
2023-02-12T20:46:37.314Z,8.30
2023-02-12T20:48:39.862Z,8.30
2023-02-12T20:50:42.634Z,8.30
2023-02-12T20:52:45.255Z,8.30
2023-02-12T20:54:48.035Z,8.20
2023-02-12T20:56:50.935Z,8.20
2023-02-12T20:58:53.908Z,8.20
2023-02-12T21:00:58.538Z,8.20
2023-02-12T21:03:03.298Z,8.20
2023-02-12T21:05:07.302Z,8.20
2023-02-12T21:07:09.814Z,8.10
2023-02-12T21:09:13.377Z,8.10
2023-02-12T21:11:17.296Z,8.10
2023-02-12T21:13:19.800Z,8.10
2023-02-12T21:15:22.347Z,8.10
2023-02-12T21:17:24.862Z,8.00
2023-02-12T21:19:27.684Z,8.10
2023-02-12T21:21:30.917Z,8.00
2023-02-12T21:23:33.863Z,8.10
2023-02-12T21:25:36.465Z,8.00
2023-02-12T21:27:40.272Z,8.00
2023-02-12T21:29:42.795Z,8.00
2023-02-12T21:31:46.333Z,8.00
2023-02-12T21:33:49.642Z,8.10
2023-02-12T21:35:52.176Z,8.10
2023-02-12T21:37:54.674Z,8.10
2023-02-12T21:39:57.201Z,8.10
2023-02-12T21:42:01.756Z,8.10
2023-02-12T21:44:05.953Z,8.00
2023-02-12T21:46:08.930Z,8.00
2023-02-12T21:48:11.565Z,8.00
2023-02-12T21:50:14.141Z,8.10
2023-02-12T21:52:16.662Z,8.10
2023-02-12T21:54:19.475Z,8.10
2023-02-12T21:56:22.665Z,8.10
2023-02-12T21:58:25.165Z,8.10
2023-02-12T22:00:27.777Z,8.10
2023-02-12T22:02:30.370Z,8.10
2023-02-12T22:04:32.854Z,8.10
2023-02-12T22:06:37.439Z,8.00
2023-02-12T22:08:42.945Z,8.00
2023-02-12T22:10:45.817Z,8.00
2023-02-12T22:12:48.544Z,8.00
2023-02-12T22:14:51.182Z,8.00
2023-02-12T22:16:53.660Z,8.00
2023-02-12T22:18:58.713Z,8.00
2023-02-12T22:21:01.695Z,8.00
2023-02-12T22:23:04.169Z,8.00
2023-02-12T22:25:06.832Z,8.00
2023-02-12T22:27:09.361Z,8.00
2023-02-12T22:29:13.048Z,8.00
2023-02-12T22:31:18.809Z,8.00
2023-02-12T22:33:21.257Z,8.00
2023-02-12T22:35:23.791Z,8.00
2023-02-12T22:37:26.297Z,8.00
2023-02-12T22:39:34.954Z,8.00
2023-02-12T22:41:42.209Z,8.00
2023-02-12T22:43:48.732Z,8.00
2023-02-12T22:45:53.631Z,7.90
2023-02-12T22:47:59.189Z,8.00
2023-02-12T22:50:04.916Z,8.00
2023-02-12T22:52:10.995Z,8.00
2023-02-12T22:54:17.183Z,8.00
2023-02-12T22:56:22.774Z,8.00
2023-02-12T22:58:29.420Z,8.00
2023-02-12T23:00:34.924Z,8.00
2023-02-12T23:02:40.772Z,8.00
2023-02-12T23:04:46.492Z,8.00
2023-02-12T23:06:52.135Z,8.10
2023-02-12T23:09:00.481Z,8.00
2023-02-12T23:11:08.298Z,8.00
2023-02-12T23:13:27.923Z,8.00
2023-02-12T23:15:22.078Z,8.10
2023-02-12T23:17:27.196Z,8.20
2023-02-12T23:19:33.309Z,8.10
2023-02-12T23:21:38.989Z,8.00
2023-02-12T23:23:44.685Z,8.10
2023-02-12T23:25:50.836Z,8.10
2023-02-12T23:27:56.260Z,8.10
2023-02-12T23:30:02.550Z,8.00
2023-02-12T23:32:08.740Z,8.00
2023-02-12T23:34:14.176Z,8.00
2023-02-12T23:36:20.699Z,8.00
2023-02-12T23:38:26.734Z,8.00
2023-02-12T23:40:33.590Z,8.00
2023-02-12T23:42:41.152Z,8.00
2023-02-12T23:44:47.397Z,8.00
2023-02-12T23:46:53.860Z,8.00
2023-02-12T23:48:59.609Z,8.00
2023-02-12T23:51:06.296Z,8.00
2023-02-12T23:53:10.890Z,7.90
2023-02-12T23:55:14.812Z,8.00
2023-02-12T23:57:18.386Z,7.90
2023-02-12T23:59:21.092Z,7.90
